Time;durP1;ratioP1;P1;durP2;ratioP2;P2;SDS_P1;SDS_P2;PMS_P1;PMS_P2;Temp;Humidity;BMP_temperature;BMP_pressure;BME280_temperature;BME280_humidity;BME280_pressure;Samples;Min_cycle;Max_cycle;Signal;HPM_P1;HPM_P2
2023/01/13 00:02:15;;;;;;;20.10;4.65;;;8.60;99.90;;;;;;7359975;19;20011;-66
2023/01/13 00:04:41;;;;;;;23.02;4.55;;;8.50;99.90;;;;;;7354413;19;20603;-66
2023/01/13 00:07:11;;;;;;;21.27;5.05;;;8.50;99.90;;;;;;7355565;19;20014;-67
2023/01/13 00:09:37;;;;;;;17.88;4.53;;;8.50;99.90;;;;;;7355527;19;20019;-66
2023/01/13 00:12:05;;;;;;;22.33;4.70;;;8.50;99.90;;;;;;7364142;19;20011;-67
2023/01/13 00:14:35;;;;;;;21.80;4.97;;;8.40;99.90;;;;;;7366131;19;20284;-67
2023/01/13 00:17:03;;;;;;;23.65;4.68;;;8.40;99.90;;;;;;7361991;19;20022;-67
2023/01/13 00:19:29;;;;;;;30.52;6.35;;;8.30;99.90;;;;;;7363099;19;20580;-67
2023/01/13 00:21:55;;;;;;;28.38;5.88;;;8.40;99.90;;;;;;7364461;19;20018;-67
2023/01/13 00:24:22;;;;;;;26.55;5.88;;;8.30;99.90;;;;;;7362084;19;20024;-67
2023/01/13 00:26:48;;;;;;;30.13;6.82;;;8.30;99.90;;;;;;7360616;19;20130;-67
2023/01/13 00:29:15;;;;;;;32.13;6.47;;;8.20;99.90;;;;;;7367232;19;20015;-66
2023/01/13 00:31:41;;;;;;;35.38;6.38;;;8.10;99.90;;;;;;7364321;19;20015;-66
2023/01/13 00:34:07;;;;;;;27.08;6.22;;;8.20;99.90;;;;;;7358241;19;20015;-67
2023/01/13 00:36:34;;;;;;;26.33;5.75;;;8.10;99.90;;;;;;7362264;19;21104;-67
2023/01/13 00:39:02;;;;;;;34.40;6.18;;;8.10;99.90;;;;;;7360998;19;20022;-67
2023/01/13 00:43:21;;;;;;;27.90;6.07;;;8.00;99.90;;;;;;7360777;19;20470;-67
2023/01/13 00:44:14;;;;;;;36.08;7.40;;;8.00;99.90;;;;;;7363882;19;20025;-67
2023/01/13 00:46:43;;;;;;;35.58;6.88;;;7.90;99.90;;;;;;7358835;19;20022;-67
2023/01/13 00:49:10;;;;;;;34.40;6.32;;;7.90;99.90;;;;;;7363759;19;20018;-67
2023/01/13 00:51:37;;;;;;;38.90;8.10;;;7.90;99.90;;;;;;7391948;19;20081;-66
2023/01/13 00:54:04;;;;;;;32.15;7.07;;;7.80;99.90;;;;;;7397271;19;20011;-66
2023/01/13 00:56:30;;;;;;;27.75;5.72;;;7.80;99.90;;;;;;7390143;19;20076;-67
2023/01/13 00:58:57;;;;;;;35.25;7.25;;;7.80;99.90;;;;;;7362790;19;20485;-67
2023/01/13 01:01:24;;;;;;;27.23;6.32;;;7.80;99.90;;;;;;7359915;19;20726;-67
2023/01/13 01:03:52;;;;;;;35.05;5.65;;;7.80;99.90;;;;;;7362258;19;20482;-67
2023/01/13 01:06:22;;;;;;;27.15;7.43;;;7.80;99.90;;;;;;7376466;19;20019;-67
2023/01/13 01:08:49;;;;;;;28.42;6.25;;;7.80;99.90;;;;;;7394656;19;20022;-65
2023/01/13 01:11:19;;;;;;;25.05;5.53;;;7.90;99.90;;;;;;7380954;19;20445;-67
2023/01/13 01:13:45;;;;;;;33.58;6.32;;;7.90;99.90;;;;;;7363104;19;20030;-66
2023/01/13 01:16:17;;;;;;;32.55;5.57;;;8.00;99.90;;;;;;7360498;19;20022;-67
2023/01/13 01:18:46;;;;;;;31.00;5.43;;;8.00;99.90;;;;;;7384833;19;20108;-65
2023/01/13 01:21:13;;;;;;;28.52;5.18;;;8.10;99.90;;;;;;7392657;19;20022;-66
2023/01/13 01:23:44;;;;;;;26.77;4.95;;;8.10;99.90;;;;;;7360653;19;20039;-67
2023/01/13 01:26:14;;;;;;;20.27;4.55;;;8.20;99.90;;;;;;7357145;19;20029;-67
2023/01/13 01:28:42;;;;;;;32.08;5.82;;;8.20;99.90;;;;;;7377797;19;20015;-65
2023/01/13 01:31:16;;;;;;;27.58;5.85;;;8.20;99.90;;;;;;7380464;19;20024;-67
2023/01/13 01:33:43;;;;;;;22.27;5.53;;;8.20;99.90;;;;;;7392955;19;20018;-65
2023/01/13 01:36:11;;;;;;;22.45;5.00;;;8.20;99.90;;;;;;7367636;19;20014;-66
2023/01/13 01:38:38;;;;;;;37.20;5.82;;;8.20;99.90;;;;;;7369308;19;20114;-66
2023/01/13 01:41:05;;;;;;;25.05;5.38;;;8.20;99.90;;;;;;7394371;19;20059;-66
2023/01/13 01:43:58;;;;;;;24.80;5.47;;;8.10;99.90;;;;;;7393062;19;20018;-67
2023/01/13 01:46:31;;;;;;;31.17;6.30;;;8.10;99.90;;;;;;7362527;19;20373;-67
2023/01/13 01:49:02;;;;;;;;;;;8.10;99.90;;;;;;7362819;19;20093;-67
2023/01/13 01:51:33;;;;;;;25.47;5.83;;;8.20;99.90;;;;;;7358897;19;19937;-66
2023/01/13 01:54:01;;;;;;;35.63;6.27;;;8.20;99.90;;;;;;7381656;19;20283;-65
2023/01/13 01:56:27;;;;;;;25.75;5.72;;;8.20;99.90;;;;;;7391607;19;20019;-66
2023/01/13 01:58:57;;;;;;;30.92;6.28;;;8.20;99.90;;;;;;7387725;19;20636;-65
2023/01/13 02:01:23;;;;;;;31.40;6.32;;;8.20;99.90;;;;;;7369806;19;20014;-67
2023/01/13 02:03:59;;;;;;;29.45;6.75;;;8.20;99.90;;;;;;7365443;19;20011;-67
2023/01/13 02:06:29;;;;;;;29.42;7.13;;;8.20;99.90;;;;;;7389175;19;20381;-66
2023/01/13 02:09:00;;;;;;;31.52;5.72;;;8.20;99.90;;;;;;7393171;19;20450;-65
2023/01/13 02:14:20;;;;;;;;;;;8.20;99.90;;;;;;7391265;19;20015;-66
2023/01/13 02:17:11;;;;;;;28.63;5.55;;;8.30;99.90;;;;;;7391619;19;19922;-65
2023/01/13 02:20:16;;;;;;;36.55;6.78;;;8.50;99.90;;;;;;7390127;19;20029;-66
2023/01/13 02:22:57;;;;;;;25.15;6.25;;;8.50;99.90;;;;;;7392669;19;20017;-65
2023/01/13 02:25:47;;;;;;;27.55;5.28;;;8.50;99.90;;;;;;7390792;19;20469;-65
2023/01/13 02:28:36;;;;;;;38.58;5.93;;;8.50;99.90;;;;;;7391216;19;20086;-65
2023/01/13 02:34:28;;;;;;;24.33;6.22;;;8.50;99.90;;;;;;7386499;19;20014;-65
2023/01/13 02:37:03;;;;;;;28.05;7.10;;;8.50;99.90;;;;;;7379262;19;20037;-66
2023/01/13 02:40:08;;;;;;;26.60;5.57;;;8.40;99.90;;;;;;7360343;19;20025;-67
2023/01/13 02:45:37;;;;;;;22.40;5.63;;;8.40;99.90;;;;;;7370592;19;20909;-66
2023/01/13 02:48:06;;;;;;;35.40;6.57;;;8.30;99.90;;;;;;7346188;19;20018;-67
2023/01/13 02:50:48;;;;;;;29.15;5.68;;;8.30;99.90;;;;;;7357763;19;20014;-67
2023/01/13 02:53:33;;;;;;;34.45;6.68;;;8.20;99.90;;;;;;7353101;19;20022;-67
2023/01/13 02:56:02;;;;;;;24.80;5.38;;;8.20;99.90;;;;;;7354297;19;20069;-67
2023/01/13 02:58:31;;;;;;;28.10;5.85;;;8.20;99.90;;;;;;7355000;19;20397;-67
2023/01/13 03:00:57;;;;;;;30.73;5.65;;;8.20;99.90;;;;;;7355661;19;20085;-66
2023/01/13 03:03:24;;;;;;;29.85;6.88;;;8.20;99.90;;;;;;7356598;19;20019;-67
2023/01/13 03:05:59;;;;;;;35.85;6.63;;;8.30;99.90;;;;;;7356957;19;20014;-67
2023/01/13 03:08:42;;;;;;;26.95;6.95;;;8.20;99.90;;;;;;7356123;19;20019;-67
2023/01/13 03:11:15;;;;;;;32.60;6.95;;;8.30;99.90;;;;;;7357759;19;20123;-65
2023/01/13 03:14:07;;;;;;;29.40;6.80;;;8.30;99.90;;;;;;7388015;19;20086;-65
2023/01/13 03:16:51;;;;;;;;;;;8.30;99.90;;;;;;7388953;19;20010;-65
2023/01/13 03:19:45;;;;;;;34.95;7.00;;;8.30;99.90;;;;;;7389973;19;19978;-65
2023/01/13 03:22:40;;;;;;;29.70;5.63;;;8.20;99.90;;;;;;7388440;19;20040;-66
2023/01/13 03:25:17;;;;;;;31.52;7.40;;;8.30;99.90;;;;;;7355545;19;20014;-67
2023/01/13 03:27:55;;;;;;;40.00;6.97;;;8.40;99.90;;;;;;7351641;19;20019;-67
2023/01/13 03:30:36;;;;;;;35.60;6.95;;;8.40;99.90;;;;;;7357630;19;20018;-67
2023/01/13 03:33:16;;;;;;;31.92;7.80;;;8.40;99.90;;;;;;7356368;19;20014;-67
2023/01/13 03:35:48;;;;;;;36.83;7.70;;;8.50;99.90;;;;;;7356232;19;20022;-67
2023/01/13 03:38:22;;;;;;;33.25;7.70;;;8.50;99.90;;;;;;7354433;19;20544;-67
2023/01/13 03:40:55;;;;;;;31.45;6.30;;;8.50;99.90;;;;;;7389378;19;20029;-65
2023/01/13 03:46:44;;;;;;;30.92;6.53;;;8.60;99.90;;;;;;7363995;19;20023;-67
2023/01/13 03:49:16;;;;;;;35.63;8.00;;;8.60;99.90;;;;;;7351516;19;20887;-67
2023/01/13 03:51:49;;;;;;;27.92;6.20;;;8.50;99.90;;;;;;7358291;19;20453;-66
2023/01/13 03:54:22;;;;;;;29.48;7.15;;;8.50;99.90;;;;;;7386107;19;20017;-65
2023/01/13 03:56:58;;;;;;;34.08;5.95;;;8.50;99.90;;;;;;7388003;19;20053;-66
2023/01/13 03:59:31;;;;;;;39.50;7.03;;;8.50;99.90;;;;;;7387036;19;20074;-65
2023/01/13 04:02:20;;;;;;;31.95;6.50;;;8.40;99.90;;;;;;7387227;19;20014;-65
2023/01/13 04:04:57;;;;;;;29.93;6.10;;;8.40;99.90;;;;;;7356108;19;20036;-66
2023/01/13 04:07:30;;;;;;;38.75;7.72;;;8.40;99.90;;;;;;7356715;19;20297;-67
2023/01/13 04:09:58;;;;;;;33.90;6.75;;;8.40;99.90;;;;;;7355684;19;20587;-67
2023/01/13 04:12:59;;;;;;;31.70;7.30;;;8.40;99.90;;;;;;7374254;19;20454;-65
2023/01/13 04:15:20;;;;;;;30.67;7.40;;;8.40;99.90;;;;;;7387189;19;20092;-65
2023/01/13 04:17:46;;;;;;;30.15;6.20;;;8.40;99.90;;;;;;7388163;19;20331;-65
2023/01/13 04:20:20;;;;;;;36.75;7.85;;;8.50;99.90;;;;;;7385907;19;20010;-65
2023/01/13 04:22:46;;;;;;;25.67;6.13;;;8.50;99.90;;;;;;7387192;19;20018;-65
2023/01/13 04:25:12;;;;;;;30.77;6.63;;;8.70;99.90;;;;;;7387149;19;20022;-65
2023/01/13 04:27:39;;;;;;;30.73;7.10;;;8.60;99.90;;;;;;7388719;19;20364;-65
2023/01/13 04:30:06;;;;;;;32.20;6.07;;;8.60;99.90;;;;;;7388420;19;20010;-65
2023/01/13 04:32:32;;;;;;;29.90;6.63;;;8.60;99.90;;;;;;7386344;19;20011;-66
2023/01/13 04:34:59;;;;;;;27.30;6.63;;;8.60;99.90;;;;;;7387555;19;20014;-65
2023/01/13 04:37:25;;;;;;;33.35;6.40;;;8.50;99.90;;;;;;7388089;19;20049;-66
2023/01/13 04:39:51;;;;;;;32.58;6.47;;;8.60;99.90;;;;;;7387853;19;20026;-65
2023/01/13 04:42:19;;;;;;;31.48;6.60;;;8.60;99.90;;;;;;7387658;19;20077;-66
2023/01/13 04:44:47;;;;;;;30.88;6.90;;;8.50;99.90;;;;;;7387086;19;20097;-65
2023/01/13 04:47:14;;;;;;;30.77;7.30;;;8.50;99.90;;;;;;7387740;19;20014;-65
2023/01/13 04:49:42;;;;;;;35.25;6.60;;;8.50;99.90;;;;;;7387414;19;20007;-65
2023/01/13 04:52:08;;;;;;;26.83;6.50;;;8.50;99.90;;;;;;7388609;19;20015;-65
2023/01/13 04:54:36;;;;;;;34.15;6.72;;;8.50;99.90;;;;;;7386909;19;20470;-66
2023/01/13 04:57:04;;;;;;;27.08;6.93;;;8.50;99.90;;;;;;7390267;19;20015;-66
2023/01/13 04:59:30;;;;;;;25.80;5.80;;;8.40;99.90;;;;;;7394322;19;20014;-65
2023/01/13 05:01:59;;;;;;;29.27;5.75;;;8.50;99.90;;;;;;7395902;19;20022;-66
2023/01/13 05:04:29;;;;;;;29.13;5.78;;;8.50;99.90;;;;;;7395041;19;20014;-66
2023/01/13 05:06:55;;;;;;;27.63;6.10;;;8.40;99.90;;;;;;7393276;19;20018;-65
2023/01/13 05:09:25;;;;;;;24.88;6.63;;;8.40;99.90;;;;;;7395966;19;20026;-65
2023/01/13 05:17:30;;;;;;;33.97;7.57;;;8.30;99.90;;;;;;7396019;19;20038;-65
2023/01/13 05:20:17;;;;;;;31.73;6.55;;;8.30;99.90;;;;;;7393329;19;20350;-65
2023/01/13 05:25:35;;;;;;;30.30;6.72;;;8.30;99.90;;;;;;7393190;19;20476;-65
2023/01/13 05:28:01;;;;;;;25.20;5.75;;;8.40;99.90;;;;;;7395213;19;20078;-65
2023/01/13 05:30:31;;;;;;;31.40;6.18;;;8.40;99.90;;;;;;7366029;19;20010;-65
2023/01/13 05:32:57;;;;;;;25.30;6.15;;;8.30;99.90;;;;;;7374635;19;20014;-65
2023/01/13 05:35:24;;;;;;;28.17;5.93;;;8.40;99.90;;;;;;7375776;19;20094;-66
2023/01/13 05:37:50;;;;;;;33.78;6.18;;;8.40;99.90;;;;;;7357379;19;20019;-66
2023/01/13 05:43:23;;;;;;;28.83;5.45;;;8.30;99.90;;;;;;7357404;19;20361;-66
2023/01/13 05:45:59;;;;;;;26.48;6.55;;;8.30;99.90;;;;;;7358507;19;20474;-66
2023/01/13 05:48:34;;;;;;;33.65;6.32;;;8.30;99.90;;;;;;7358544;19;20022;-66
2023/01/13 05:51:03;;;;;;;21.10;5.18;;;8.40;99.90;;;;;;7358880;19;20129;-66
2023/01/13 05:53:30;;;;;;;27.00;4.70;;;8.30;99.90;;;;;;7359704;19;20017;-66
2023/01/13 05:55:56;;;;;;;23.15;5.25;;;8.30;99.90;;;;;;7360704;19;20022;-66
2023/01/13 05:58:25;;;;;;;26.60;4.97;;;8.30;99.90;;;;;;7358753;19;20025;-66
2023/01/13 06:00:51;;;;;;;24.15;5.40;;;8.30;99.90;;;;;;7357094;19;20026;-68
2023/01/13 06:03:19;;;;;;;22.08;4.90;;;8.40;99.90;;;;;;7357018;19;20385;-66
2023/01/13 06:05:46;;;;;;;22.10;5.47;;;8.40;99.90;;;;;;7352397;19;20433;-66
2023/01/13 06:08:12;;;;;;;20.58;5.07;;;8.40;99.90;;;;;;7350709;19;20022;-66
2023/01/13 06:10:46;;;;;;;20.20;4.45;;;8.40;99.90;;;;;;7368087;19;20014;-66
2023/01/13 06:13:12;;;;;;;23.92;4.97;;;8.40;99.90;;;;;;7393502;19;20037;-65
2023/01/13 06:15:38;;;;;;;24.08;5.97;;;8.50;99.90;;;;;;7394074;19;20015;-66
2023/01/13 06:18:04;;;;;;;25.48;5.40;;;8.50;99.90;;;;;;7395188;19;20429;-66
2023/01/13 06:21:08;;;;;;;21.17;6.18;;;8.50;99.90;;;;;;7391795;19;20027;-67
2023/01/13 06:23:37;;;;;;;25.27;5.60;;;8.60;99.90;;;;;;7359747;19;20239;-66
2023/01/13 06:26:13;;;;;;;22.90;5.97;;;8.50;99.90;;;;;;7360509;19;20051;-65
2023/01/13 06:28:39;;;;;;;18.65;6.07;;;8.50;99.90;;;;;;7391886;19;20010;-65
2023/01/13 06:31:07;;;;;;;18.42;6.10;;;8.50;99.90;;;;;;7356998;19;20022;-66
2023/01/13 06:33:37;;;;;;;24.83;6.57;;;8.50;99.90;;;;;;7374944;19;20476;-66
2023/01/13 06:36:11;;;;;;;20.55;5.30;;;8.50;99.90;;;;;;7370339;19;20061;-65
2023/01/13 06:38:42;;;;;;;23.42;5.47;;;8.50;99.90;;;;;;7382822;19;20023;-66
2023/01/13 06:41:08;;;;;;;18.88;5.93;;;8.50;99.90;;;;;;7352267;19;20045;-66
2023/01/13 06:43:37;;;;;;;17.52;4.43;;;8.50;99.90;;;;;;7356383;19;20496;-65
2023/01/13 06:46:04;;;;;;;21.58;6.15;;;8.40;99.90;;;;;;7358525;19;20029;-66
2023/01/13 06:48:33;;;;;;;15.63;3.88;;;8.50;99.90;;;;;;7393962;19;20534;-66
2023/01/13 06:51:01;;;;;;;19.63;4.35;;;8.50;99.90;;;;;;7392177;19;20346;-65
2023/01/13 06:53:27;;;;;;;17.90;4.78;;;8.50;99.90;;;;;;7372743;19;20817;-66
2023/01/13 06:55:53;;;;;;;14.77;3.72;;;8.50;99.90;;;;;;7356061;19;20019;-65
2023/01/13 06:58:19;;;;;;;19.45;3.35;;;8.50;99.90;;;;;;7354544;19;20585;-66
2023/01/13 07:00:50;;;;;;;18.40;3.78;;;8.50;99.90;;;;;;7358993;19;20019;-66
2023/01/13 07:03:17;;;;;;;13.10;3.90;;;8.50;99.90;;;;;;7352465;19;20026;-66
2023/01/13 07:05:51;;;;;;;16.27;4.47;;;8.40;99.90;;;;;;7354523;19;20567;-66
2023/01/13 07:08:17;;;;;;;17.05;3.95;;;8.40;99.90;;;;;;7355095;19;20022;-66
2023/01/13 07:10:43;;;;;;;11.32;3.67;;;8.40;99.90;;;;;;7353859;19;20047;-65
2023/01/13 07:16:00;;;;;;;19.77;3.55;;;8.40;99.90;;;;;;7355009;19;20370;-65
2023/01/13 07:18:30;;;;;;;;;;;8.40;99.90;;;;;;7357121;19;20046;-64
2023/01/13 07:21:04;;;;;;;15.77;3.22;;;8.20;99.90;;;;;;7348980;19;20430;-65
2023/01/13 07:23:32;;;;;;;20.10;4.45;;;8.20;99.90;;;;;;7352878;19;20010;-65
2023/01/13 07:25:59;;;;;;;18.80;4.90;;;8.20;99.90;;;;;;7349110;19;20034;-62
2023/01/13 07:28:27;;;;;;;18.05;4.10;;;8.20;99.90;;;;;;7356766;19;20021;-65
2023/01/13 07:30:53;;;;;;;19.90;3.67;;;8.20;99.90;;;;;;7351302;19;20026;-63
2023/01/13 07:33:19;;;;;;;22.33;4.97;;;8.20;99.90;;;;;;7357066;19;20398;-63
2023/01/13 07:35:47;;;;;;;18.80;3.92;;;8.10;99.90;;;;;;7351941;19;20029;-64
2023/01/13 07:38:14;;;;;;;18.27;4.18;;;8.10;99.90;;;;;;7351963;19;20031;-64
2023/01/13 07:40:41;;;;;;;20.48;3.60;;;8.00;99.90;;;;;;7353501;19;20022;-64
2023/01/13 07:45:57;;;;;;;20.83;3.80;;;7.70;99.90;;;;;;7352548;19;20478;-64
2023/01/13 07:48:24;;;;;;;22.73;4.35;;;7.70;99.90;;;;;;7356490;19;20341;-63
2023/01/13 07:50:51;;;;;;;20.63;4.15;;;7.70;99.90;;;;;;7355380;19;20054;-63
2023/01/13 07:53:18;;;;;;;24.90;4.55;;;7.60;99.90;;;;;;7355618;19;20019;-63
2023/01/13 07:55:44;;;;;;;18.23;4.13;;;7.60;99.90;;;;;;7354604;19;20018;-62
2023/01/13 07:58:11;;;;;;;17.73;5.25;;;7.60;99.90;;;;;;7356640;19;20022;-63
2023/01/13 08:00:37;;;;;;;14.52;3.75;;;7.60;99.90;;;;;;7358627;19;20070;-62
2023/01/13 08:03:04;;;;;;;23.65;4.63;;;7.70;99.90;;;;;;7354233;19;20029;-63
2023/01/13 08:05:30;;;;;;;21.23;4.80;;;7.60;99.90;;;;;;7355682;19;20014;-64
2023/01/13 08:07:57;;;;;;;20.38;3.75;;;7.60;99.90;;;;;;7352638;19;20025;-63
2023/01/13 08:10:23;;;;;;;17.17;3.28;;;7.60;99.90;;;;;;7356540;19;20014;-63
2023/01/13 08:15:35;;;;;;;23.77;5.03;;;7.50;99.90;;;;;;7353691;19;20722;-63
2023/01/13 08:18:01;;;;;;;20.92;4.07;;;7.50;99.90;;;;;;7352521;19;20035;-63
2023/01/13 08:20:27;;;;;;;21.23;4.50;;;7.40;99.90;;;;;;7352812;19;20485;-63
2023/01/13 08:22:58;;;;;;;17.08;4.25;;;7.40;99.90;;;;;;7352276;19;20041;-63
2023/01/13 08:25:26;;;;;;;25.27;5.35;;;7.50;99.90;;;;;;7357078;19;20026;-63
2023/01/13 08:27:52;;;;;;;21.00;3.88;;;7.40;99.90;;;;;;7352071;19;20026;-63
2023/01/13 08:30:19;;;;;;;22.23;4.72;;;7.50;99.90;;;;;;7348706;19;20021;-63
2023/01/13 08:32:47;;;;;;;20.92;4.60;;;7.50;99.90;;;;;;7365128;19;20380;-63
2023/01/13 08:35:14;;;;;;;20.65;4.22;;;7.50;99.90;;;;;;7363220;19;20487;-63
2023/01/13 08:37:41;;;;;;;20.08;5.18;;;7.50;99.90;;;;;;7360807;19;20448;-63
2023/01/13 08:40:08;;;;;;;24.65;4.60;;;7.50;99.90;;;;;;7360691;19;20599;-63
2023/01/13 08:42:35;;;;;;;19.42;4.38;;;7.50;99.90;;;;;;7361399;19;20033;-63
2023/01/13 08:45:01;;;;;;;26.38;4.50;;;7.50;99.90;;;;;;7359578;19;20529;-63
2023/01/13 08:47:28;;;;;;;27.65;5.10;;;7.50;99.90;;;;;;7364144;19;20109;-68
2023/01/13 08:50:04;;;;;;;28.52;4.82;;;7.50;99.90;;;;;;7401769;19;20069;-68
2023/01/13 08:52:44;;;;;;;25.67;5.30;;;7.50;99.90;;;;;;7402833;19;20014;-68
2023/01/13 08:55:11;;;;;;;20.98;4.90;;;7.50;99.90;;;;;;7379973;19;20046;-63
2023/01/13 08:57:37;;;;;;;29.33;5.53;;;7.50;99.90;;;;;;7362530;19;20014;-63
2023/01/13 09:00:06;;;;;;;21.40;4.78;;;7.50;99.90;;;;;;7358209;19;20528;-63
2023/01/13 09:02:32;;;;;;;22.35;4.28;;;7.60;99.90;;;;;;7362611;19;20019;-63
2023/01/13 09:05:02;;;;;;;22.73;5.30;;;7.50;99.90;;;;;;7363413;19;20010;-68
2023/01/13 09:07:30;;;;;;;20.40;4.55;;;7.60;99.90;;;;;;7385468;19;20034;-68
2023/01/13 09:09:57;;;;;;;23.85;4.50;;;7.60;99.90;;;;;;7385088;19;20022;-64
2023/01/13 09:15:20;;;;;;;25.58;4.53;;;7.60;99.90;;;;;;7398694;19;20010;-69
2023/01/13 09:17:46;;;;;;;22.15;4.97;;;7.60;99.90;;;;;;7401612;19;20017;-69
2023/01/13 09:20:51;;;;;;;24.30;5.85;;;7.70;99.90;;;;;;7397421;19;20015;-67
2023/01/13 09:23:29;;;;;;;19.88;4.95;;;7.80;99.90;;;;;;7398782;19;20066;-69
2023/01/13 09:25:56;;;;;;;25.85;5.10;;;7.80;99.90;;;;;;7401903;19;20010;-68
2023/01/13 09:28:41;;;;;;;23.83;5.38;;;7.80;99.90;;;;;;7401803;19;20107;-67
2023/01/13 09:31:11;;;;;;;21.15;5.18;;;7.90;99.90;;;;;;7399078;19;20013;-68
2023/01/13 09:36:28;;;;;;;18.80;4.78;;;7.80;99.90;;;;;;7396833;19;20026;-63
2023/01/13 09:38:54;;;;;;;22.13;5.03;;;7.80;99.90;;;;;;7358295;19;20374;-64
2023/01/13 09:44:24;;;;;;;27.80;5.63;;;7.80;99.90;;;;;;7387173;19;20010;-68
2023/01/13 09:46:55;;;;;;;27.35;4.90;;;7.80;99.90;;;;;;7384953;19;20035;-63
2023/01/13 09:49:30;;;;;;;17.50;4.75;;;7.70;99.90;;;;;;7357766;19;20017;-63
2023/01/13 09:52:19;;;;;;;20.60;4.82;;;7.70;99.90;;;;;;7362115;19;20592;-63
2023/01/13 09:55:04;;;;;;;29.30;5.75;;;7.70;99.90;;;;;;7359885;19;20039;-63
2023/01/13 09:57:36;;;;;;;25.95;5.85;;;7.70;99.90;;;;;;7359734;19;20450;-63
2023/01/13 10:00:16;;;;;;;25.38;5.05;;;7.70;99.90;;;;;;7356960;19;20014;-63
2023/01/13 10:02:53;;;;;;;29.02;5.88;;;7.60;99.90;;;;;;7382486;19;20044;-69
2023/01/13 10:05:26;;;;;;;24.00;5.85;;;7.60;99.90;;;;;;7365205;19;20384;-63
2023/01/13 10:08:14;;;;;;;24.80;5.45;;;7.60;99.90;;;;;;7355237;19;20035;-63
2023/01/13 10:10:47;;;;;;;31.50;5.78;;;7.60;99.90;;;;;;7358640;19;20121;-63
2023/01/13 10:13:18;;;;;;;25.30;5.65;;;7.60;99.90;;;;;;7353516;19;20458;-63
2023/01/13 10:16:10;;;;;;;31.58;5.47;;;7.60;99.90;;;;;;7361470;19;20477;-63
2023/01/13 10:18:48;;;;;;;28.73;5.90;;;7.60;99.90;;;;;;7362024;19;20025;-63
2023/01/13 10:21:53;;;;;;;29.30;6.00;;;7.60;99.90;;;;;;7358776;19;20398;-64
2023/01/13 10:24:25;;;;;;;24.63;5.13;;;7.60;99.90;;;;;;7387213;19;20046;-70
2023/01/13 10:27:06;;;;;;;20.88;5.28;;;7.60;99.90;;;;;;7391511;19;20525;-71
2023/01/13 10:29:42;;;;;;;26.02;5.40;;;7.70;99.90;;;;;;7397305;19;20099;-71
2023/01/13 10:32:09;;;;;;;32.10;5.25;;;7.60;99.90;;;;;;7377446;19;20022;-64
2023/01/13 10:34:59;;;;;;;26.50;5.22;;;7.70;99.90;;;;;;7359364;19;20029;-64
2023/01/13 10:37:27;;;;;;;31.40;6.00;;;7.70;99.90;;;;;;7382370;19;20474;-71
2023/01/13 10:39:55;;;;;;;29.60;6.63;;;7.60;99.90;;;;;;7391381;19;20025;-70
2023/01/13 10:42:23;;;;;;;31.83;6.20;;;7.60;99.90;;;;;;7390342;19;20484;-71
2023/01/13 10:44:52;;;;;;;30.67;6.13;;;7.60;99.90;;;;;;7391020;19;20018;-70
2023/01/13 10:47:29;;;;;;;27.77;6.22;;;7.60;99.90;;;;;;7388351;19;20024;-71
2023/01/13 10:50:18;;;;;;;33.60;6.40;;;7.60;99.90;;;;;;7382269;19;20132;-64
2023/01/13 10:52:57;;;;;;;30.55;5.75;;;7.70;99.90;;;;;;7391451;19;20491;-70
2023/01/13 10:55:32;;;;;;;27.23;6.18;;;7.70;99.90;;;;;;7360221;19;20015;-64
2023/01/13 10:58:24;;;;;;;33.65;6.25;;;7.70;99.90;;;;;;7359458;19;20019;-64
2023/01/13 11:00:59;;;;;;;28.50;5.65;;;7.70;99.90;;;;;;7360901;19;20533;-63
2023/01/13 11:03:35;;;;;;;30.25;6.05;;;7.70;99.90;;;;;;7360121;19;20023;-63
2023/01/13 11:06:01;;;;;;;31.10;6.18;;;7.60;99.90;;;;;;7390485;19;20426;-71
2023/01/13 11:08:38;;;;;;;33.30;6.57;;;7.60;99.90;;;;;;7388557;19;20006;-70
2023/01/13 11:11:31;;;;;;;26.55;5.95;;;7.60;99.90;;;;;;7391383;19;20089;-71
2023/01/13 11:17:19;;;;;;;37.65;6.90;;;7.70;99.90;;;;;;7379102;19;20014;-65
2023/01/13 11:19:55;;;;;;;29.92;5.30;;;7.70;99.90;;;;;;7359272;19;20510;-64
2023/01/13 11:22:31;;;;;;;29.48;6.18;;;7.70;99.90;;;;;;7355053;19;20018;-70
2023/01/13 11:25:08;;;;;;;27.88;5.63;;;7.70;99.90;;;;;;7375123;19;20022;-63
2023/01/13 11:27:37;;;;;;;35.90;6.15;;;7.70;99.90;;;;;;7396010;19;20010;-71
2023/01/13 11:30:19;;;;;;;29.27;6.15;;;7.70;99.90;;;;;;7375425;19;20014;-71
2023/01/13 11:33:25;;;;;;;29.90;5.25;;;7.70;99.90;;;;;;7382269;19;20431;-63
2023/01/13 11:36:06;;;;;;;28.13;5.70;;;7.70;99.90;;;;;;7374713;19;20011;-63
2023/01/13 11:38:51;;;;;;;28.80;6.43;;;7.70;99.90;;;;;;7385552;19;20045;-72
2023/01/13 11:41:35;;;;;;;25.33;5.82;;;7.70;99.90;;;;;;7367349;19;20749;-63
2023/01/13 11:44:11;;;;;;;31.25;5.95;;;7.70;99.90;;;;;;7358537;19;20022;-71
2023/01/13 11:46:39;;;;;;;25.55;5.53;;;7.60;99.90;;;;;;7365416;19;20801;-71
2023/01/13 11:49:21;;;;;;;29.70;5.15;;;7.70;99.90;;;;;;7384093;19;20381;-71
2023/01/13 11:52:05;;;;;;;29.17;5.80;;;7.70;99.90;;;;;;7386266;19;20100;-71
2023/01/13 11:54:55;;;;;;;22.15;4.60;;;7.80;99.90;;;;;;7384524;19;20085;-71
2023/01/13 11:57:56;;;;;;;27.45;6.30;;;7.80;99.90;;;;;;7385533;19;20534;-70
2023/01/13 12:00:45;;;;;;;24.88;5.50;;;7.70;99.90;;;;;;7369557;19;20572;-70
2023/01/13 12:03:32;;;;;;;26.25;5.30;;;7.80;99.90;;;;;;7390676;19;20010;-70
2023/01/13 12:06:21;;;;;;;24.33;4.80;;;7.80;99.90;;;;;;7388723;19;20081;-70
2023/01/13 12:08:50;;;;;;;26.65;4.72;;;7.80;99.90;;;;;;7386330;19;20834;-63
2023/01/13 12:15:16;;;;;;;19.45;4.32;;;7.90;99.90;;;;;;7371370;19;20030;-63
2023/01/13 12:18:06;;;;;;;18.80;4.30;;;7.80;99.90;;;;;;7385383;19;20462;-71
2023/01/13 12:21:05;;;;;;;16.50;3.88;;;7.90;99.90;;;;;;7401965;19;20020;-71
2023/01/13 12:23:54;;;;;;;17.00;4.00;;;7.90;99.90;;;;;;7402511;19;20014;-71
2023/01/13 12:26:20;;;;;;;19.75;3.83;;;7.90;99.90;;;;;;7400683;19;20343;-71
2023/01/13 12:29:08;;;;;;;18.00;4.40;;;8.00;99.90;;;;;;7401280;19;20027;-71
2023/01/13 12:31:37;;;;;;;23.05;4.80;;;8.10;99.90;;;;;;7400587;19;20038;-71
2023/01/13 12:34:22;;;;;;;23.83;4.25;;;8.10;99.90;;;;;;7398349;19;20477;-71
2023/01/13 12:37:00;;;;;;;23.02;3.88;;;8.10;99.90;;;;;;7388744;19;20014;-64
2023/01/13 12:40:00;;;;;;;22.38;3.60;;;8.00;99.90;;;;;;7372688;19;20025;-64
2023/01/13 12:45:11;;;;;;;21.65;4.00;;;8.10;99.90;;;;;;7392298;19;20029;-65
2023/01/13 12:47:42;;;;;;;17.35;4.53;;;8.00;99.90;;;;;;7387050;19;20018;-66
2023/01/13 12:50:23;;;;;;;17.73;4.32;;;8.00;99.90;;;;;;7370421;19;20015;-65
2023/01/13 12:52:53;;;;;;;18.33;3.90;;;8.10;99.90;;;;;;7375109;19;20034;-65
2023/01/13 12:55:21;;;;;;;19.17;3.95;;;8.10;99.90;;;;;;7370907;19;20018;-65
2023/01/13 12:58:05;;;;;;;22.35;3.90;;;8.10;99.90;;;;;;7371129;19;20051;-64
2023/01/13 13:00:40;;;;;;;16.17;3.72;;;8.10;99.90;;;;;;7375878;19;20030;-65
2023/01/13 13:03:15;;;;;;;18.30;3.17;;;8.20;99.90;;;;;;7373781;19;20021;-65
2023/01/13 13:05:53;;;;;;;16.52;3.58;;;8.20;99.90;;;;;;7370937;19;20789;-65
2023/01/13 13:08:34;;;;;;;15.88;3.58;;;8.10;99.90;;;;;;7368442;19;20021;-65
2023/01/13 13:14:09;;;;;;;15.35;3.53;;;8.10;99.90;;;;;;7372445;19;20021;-65
2023/01/13 13:16:47;;;;;;;17.73;3.60;;;8.10;99.90;;;;;;7372184;19;20382;-65
2023/01/13 13:19:16;;;;;;;16.80;3.40;;;8.10;99.90;;;;;;7360862;19;20025;-65
2023/01/13 13:22:11;;;;;;;14.57;3.28;;;8.10;99.90;;;;;;7364566;19;20624;-65
2023/01/13 13:24:43;;;;;;;14.70;2.65;;;8.20;99.90;;;;;;7363072;19;20579;-65
2023/01/13 13:27:37;;;;;;;14.45;2.83;;;8.20;99.90;;;;;;7359058;19;20428;-67
2023/01/13 13:30:17;;;;;;;13.95;3.35;;;8.20;99.90;;;;;;7363076;19;20558;-65
2023/01/13 13:33:01;;;;;;;14.02;3.08;;;8.30;99.90;;;;;;7357996;19;20504;-62
2023/01/13 13:35:58;;;;;;;24.33;4.18;;;8.30;99.90;;;;;;7363000;19;20022;-63
2023/01/13 13:47:03;;;;;;;12.15;2.72;;;8.40;99.90;;;;;;7359998;19;20025;-66
2023/01/13 13:49:47;;;;;;;12.02;3.25;;;8.50;99.90;;;;;;7363020;19;20316;-63
2023/01/13 13:52:26;;;;;;;13.82;3.33;;;8.50;99.90;;;;;;7365235;19;20022;-64
2023/01/13 13:55:04;;;;;;;13.45;3.30;;;8.50;99.90;;;;;;7360890;19;20394;-64
2023/01/13 13:57:37;;;;;;;13.13;5.30;;;8.40;99.90;;;;;;7362009;19;20601;-65
2023/01/13 14:00:21;;;;;;;14.25;3.20;;;8.50;99.90;;;;;;7355780;19;20023;-64
2023/01/13 14:02:57;;;;;;;17.70;3.38;;;8.40;99.90;;;;;;7360259;19;20053;-64
2023/01/13 14:05:26;;;;;;;13.70;3.38;;;8.40;99.90;;;;;;7359563;19;20130;-64
2023/01/13 14:08:01;;;;;;;13.13;3.25;;;8.40;99.90;;;;;;7363070;19;20038;-64
2023/01/13 14:10:35;;;;;;;17.77;3.58;;;8.40;99.90;;;;;;7359212;19;20363;-64
2023/01/13 14:13:25;;;;;;;13.52;3.80;;;8.40;99.90;;;;;;7362737;19;20081;-63
2023/01/13 14:15:57;;;;;;;14.90;3.15;;;8.40;99.90;;;;;;7360265;19;20109;-64
2023/01/13 14:18:24;;;;;;;14.15;3.83;;;8.40;99.90;;;;;;7359669;19;20021;-65
2023/01/13 14:21:16;;;;;;;16.58;5.35;;;8.40;99.90;;;;;;7363332;19;20521;-64
2023/01/13 14:23:54;;;;;;;16.10;3.50;;;8.50;99.90;;;;;;7359141;19;20489;-65